Darstellungsparameter: Aktuell verwendete Einstellungen:
Skalierung der Graphiken ... ?
xyx+y,   Skalierungsfaktor:      Skalierung: Modus: x, Faktor: 1
Darstellungszeitraum ... ?
Vom - - bis: - -   Zeitraum: 17.05.2020 - 19.05.2020
Min/Max/Avg-Anzeige ... ?
Zeige MMA aktuell
Zeige MMA Monat
Zeige MMA alles
Zeige --A aktuell
Zeige --A Monat
Zeige --A alles
Keine MMA-Anzeige
MMA:
Keine MMA-Graphiken
MMA-Basis: 17.05.2020 - 19.05.2020
Quicknavigation für Darstellung... ?
Tage:      1T, 2T, 3T, 5T -1T -2T -3T -5T +1T +2T +3T +5T
Wochen: 1W, 2W, 3W -1W -2W -3W +1W +2W +3W
Monate: 1M, 3M, 6M -1M -3M -6M +1M +3M +6M
Jahre:    1J, 3J, 5J, 10J -1J -3J -5J -10J +1J +3J +5J +10J
Nutze für die Darstellung ... ?
Originaldaten oder ...
Mittelwerte Minima Maxima auf...
Stundenbasis Tagesbasis Wochenbasis
Monatsbasis Jahresbasis      Datenbasis: Mittelwerte auf Stundenbasis
Darstellen als:
Statistik (Auto) Statistik J:M      Darstellung:
Zur Graphik,    zurück zur Übersicht aller Sensoren.
 
Tabellarische Datenbersicht: ?
 
Sensor: Nr:Datum:Temp:Feuchte:Taupunkt:
Aussen-T/F 1 17-05-2020 00:00:00 11.31667 C 69.4167 % 5.93 C
2 17-05-2020 01:00:00 9.85833 C 75.0833 % 5.66 C
3 17-05-2020 02:00:00 9.14167 C 77.4167 % 5.41 C
4 17-05-2020 03:00:00 8.625 C 81.0833 % 5.57 C
5 17-05-2020 04:00:00 8.25833 C 82.9167 % 5.53 C
6 17-05-2020 05:00:00 7.18333 C 86.4167 % 5.07 C
7 17-05-2020 06:00:00 6.70833 C 87.8333 % 4.84 C
8 17-05-2020 07:00:00 6.93333 C 88.6667 % 5.19 C
9 17-05-2020 08:00:00 7.49167 C 88.8333 % 5.77 C
10 17-05-2020 09:00:00 9.96667 C 78.1667 % 6.35 C
11 17-05-2020 10:00:00 12.21667 C 65.3333 % 5.91 C
12 17-05-2020 11:00:00 13.23333 C 61.0000 % 5.88 C
13 17-05-2020 12:00:00 14.25833 C 56.5000 % 5.74 C
14 17-05-2020 13:00:00 15.35833 C 52.3333 % 5.66 C
15 17-05-2020 14:00:00 16.85 C 47.1667 % 5.53 C
16 17-05-2020 15:00:00 18.625 C 41.3333 % 5.24 C
17 17-05-2020 16:00:00 20.13333 C 37.4167 % 5.16 C
18 17-05-2020 17:00:00 20.69167 C 34.6667 % 4.56 C
19 17-05-2020 18:00:00 20.95833 C 35.5833 % 5.17 C
20 17-05-2020 19:00:00 20.00833 C 37.5833 % 5.11 C
21 17-05-2020 20:00:00 18.46667 C 43.8333 % 5.95 C
22 17-05-2020 21:00:00 14.75833 C 57.1667 % 6.38 C
23 17-05-2020 22:00:00 12.99167 C 62.6667 % 6.05 C
24 17-05-2020 23:00:00 10.73333 C 72.5833 % 6.01 C
25 18-05-2020 00:00:00 9.35 C 77.7500 % 5.67 C
Sensor: Nr:Datum:Temp:Feuchte:Taupunkt:
Aussen-T/F 26 18-05-2020 01:00:00 8.54167 C 81.0000 % 5.47 C
27 18-05-2020 02:00:00 7.95 C 83.2500 % 5.29 C
28 18-05-2020 03:00:00 7.16667 C 86.0000 % 4.99 C
29 18-05-2020 04:00:00 6.60833 C 87.6667 % 4.71 C
30 18-05-2020 05:00:00 6.04167 C 89.2500 % 4.41 C
31 18-05-2020 06:00:00 5.925 C 90.8333 % 4.54 C
32 18-05-2020 07:00:00 6.7 C 92.0000 % 5.49 C
33 18-05-2020 08:00:00 8.125 C 92.0000 % 6.91 C
34 18-05-2020 09:00:00 10.525 C 87.5833 % 8.55 C
35 18-05-2020 10:00:00 13.975 C 74.6667 % 9.55 C
36 18-05-2020 11:00:00 18.925 C 50.6667 % 8.48 C
37 18-05-2020 12:00:00 20.225 C 47.0000 % 8.56 C
38 18-05-2020 13:00:00 21.45 C 43.0833 % 8.39 C
39 18-05-2020 14:00:00 22.80833 C 39.9167 % 8.48 C
40 18-05-2020 15:00:00 24.43333 C 37.1667 % 8.87 C
41 18-05-2020 16:00:00 25.59167 C 35.2500 % 9.11 C
42 18-05-2020 17:00:00 25.86667 C 35.7500 % 9.56 C
43 18-05-2020 18:00:00 26.05 C 37.8333 % 10.57 C
44 18-05-2020 19:00:00 24.85 C 42.0833 % 11.1 C
45 18-05-2020 20:00:00 22.89167 C 48.5000 % 11.46 C
46 18-05-2020 21:00:00 19.43333 C 59.1667 % 11.26 C
47 18-05-2020 22:00:00 17.025 C 67.1667 % 10.89 C
48 18-05-2020 23:00:00 15.69167 C 72.4167 % 10.75 C
49 19-05-2020 00:00:00 13.85833 C 77.5833 % 10.01 C
50 19-05-2020 01:00:00 12.08333 C 83.6667 % 9.41 C
Sensor: Nr:Datum:Temp:Feuchte:Taupunkt:
Aussen-T/F 51 19-05-2020 02:00:00 11.03333 C 85.0000 % 8.61 C
52 19-05-2020 03:00:00 9.825 C 87.8333 % 7.91 C
53 19-05-2020 04:00:00 8.89167 C 90.4167 % 7.41 C
54 19-05-2020 05:00:00 8.31667 C 90.5833 % 6.87 C
55 19-05-2020 06:00:00 8.125 C 91.4167 % 6.81 C
56 19-05-2020 07:00:00 8.35 C 92.0000 % 7.13 C
57 19-05-2020 08:00:00 9.29167 C 92.3333 % 8.11 C
58 19-05-2020 09:00:00 11.55833 C 88.0000 % 9.64 C
59 19-05-2020 10:00:00 15.025 C 67.8333 % 9.14 C
60 19-05-2020 11:00:00 19.51667 C 45.5000 % 7.44 C
61 19-05-2020 12:00:00 20.34167 C 40.4167 % 6.46 C
62 19-05-2020 13:00:00 21.75 C 37.4167 % 6.59 C
63 19-05-2020 14:00:00 23.225 C 36.9167 % 7.7 C
64 19-05-2020 15:00:00 24.11667 C 39.1667 % 9.37 C
65 19-05-2020 16:00:00 24.61667 C 40.2500 % 10.22 C
66 19-05-2020 17:00:00 25.26667 C 41.1667 % 11.14 C
67 19-05-2020 18:00:00 25.43333 C 41.5833 % 11.44 C
68 19-05-2020 19:00:00 24.35 C 45.5833 % 11.85 C
69 19-05-2020 20:00:00 21.79167 C 54.5000 % 12.22 C
70 19-05-2020 21:00:00 19.225 C 63.7500 % 12.19 C
71 19-05-2020 22:00:00 17 C 70.7500 % 11.65 C
72 19-05-2020 23:00:00 15.58333 C 76.8333 % 11.54 C

Maximal/Minimal-Werte vom 17.05.2020 - 19.05.2020

Sensor Min Max Avg
Temp
(Aussen-T/F)
5.8 °C
18-05-2020  06:15:00
26.2 °C
18-05-2020  16:40:00
15.13 °C
Feuchte
(Aussen-T/F)
33 %
17-05-2020  17:25:00
93 %
19-05-2020  08:15:00
64.72 %
Taupunkt
(Aussen-T/F)
4.41 C
18-05-2020  05:00:00
12.22 C
19-05-2020  20:00:00
7.5 C

Die Daten stammen von einer Davis Vantage Pro 2 Wetter-Station und werden unter Linux mit der Software wview2wettercgi und aufbereitet. Alle Angaben erfolgen ohne Gewähr für ihre Vollständigkeit oder Richtigkeit.
Kontakt: Rainer Krienke krienke@uni-koblenz.de . Meine Webseiten an der Uni Koblenz oder privat.
Version: $Revision: 0.78 $